sensor_id;sensor_type;location;lat;lon;timestamp;temperature;humidity
38090;DHT22;23904;52.322;10.232;2023-08-06T00:00:14;16.00;99.90
38090;DHT22;23904;52.322;10.232;2023-08-06T00:02:40;15.90;99.90
38090;DHT22;23904;52.322;10.232;2023-08-06T00:05:05;16.00;99.90
38090;DHT22;23904;52.322;10.232;2023-08-06T00:07:31;16.10;99.90
38090;DHT22;23904;52.322;10.232;2023-08-06T00:09:57;16.10;99.90
38090;DHT22;23904;52.322;10.232;2023-08-06T00:12:23;16.00;99.90
38090;DHT22;23904;52.322;10.232;2023-08-06T00:14:52;16.10;99.90
38090;DHT22;23904;52.322;10.232;2023-08-06T00:17:18;16.00;99.90
38090;DHT22;23904;52.322;10.232;2023-08-06T00:19:44;16.00;99.90
38090;DHT22;23904;52.322;10.232;2023-08-06T00:22:10;16.00;99.90
38090;DHT22;23904;52.322;10.232;2023-08-06T00:24:35;16.00;99.90
38090;DHT22;23904;52.322;10.232;2023-08-06T00:27:01;15.90;99.90
38090;DHT22;23904;52.322;10.232;2023-08-06T00:29:28;16.00;99.90
38090;DHT22;23904;52.322;10.232;2023-08-06T00:31:53;16.00;99.90
38090;DHT22;23904;52.322;10.232;2023-08-06T00:34:19;15.90;99.90
38090;DHT22;23904;52.322;10.232;2023-08-06T00:36:44;15.90;99.90
38090;DHT22;23904;52.322;10.232;2023-08-06T00:39:10;16.00;99.90
38090;DHT22;23904;52.322;10.232;2023-08-06T00:41:36;16.00;99.90
38090;DHT22;23904;52.322;10.232;2023-08-06T00:44:02;16.00;99.90
38090;DHT22;23904;52.322;10.232;2023-08-06T00:46:27;15.90;99.90
38090;DHT22;23904;52.322;10.232;2023-08-06T00:48:53;15.90;99.90
38090;DHT22;23904;52.322;10.232;2023-08-06T00:51:21;15.90;99.90
38090;DHT22;23904;52.322;10.232;2023-08-06T00:53:49;15.90;99.90
38090;DHT22;23904;52.322;10.232;2023-08-06T00:56:15;15.90;99.90
38090;DHT22;23904;52.322;10.232;2023-08-06T00:58:41;16.00;99.90
38090;DHT22;23904;52.322;10.232;2023-08-06T01:01:07;15.90;99.90
38090;DHT22;23904;52.322;10.232;2023-08-06T01:03:32;15.90;99.90
38090;DHT22;23904;52.322;10.232;2023-08-06T01:06:00;15.90;99.90
38090;DHT22;23904;52.322;10.232;2023-08-06T01:08:48;15.90;99.90
38090;DHT22;23904;52.322;10.232;2023-08-06T01:14:37;15.90;99.90
38090;DHT22;23904;52.322;10.232;2023-08-06T01:17:07;15.90;99.90
38090;DHT22;23904;52.322;10.232;2023-08-06T01:19:33;15.90;99.90
38090;DHT22;23904;52.322;10.232;2023-08-06T01:21:59;15.90;99.90
38090;DHT22;23904;52.322;10.232;2023-08-06T01:24:24;15.90;99.90
38090;DHT22;23904;52.322;10.232;2023-08-06T01:26:55;15.90;99.90
38090;DHT22;23904;52.322;10.232;2023-08-06T01:29:48;15.90;99.90
38090;DHT22;23904;52.322;10.232;2023-08-06T01:32:21;15.90;99.90
38090;DHT22;23904;52.322;10.232;2023-08-06T01:34:47;15.90;99.90
38090;DHT22;23904;52.322;10.232;2023-08-06T01:37:13;15.90;99.90
38090;DHT22;23904;52.322;10.232;2023-08-06T01:39:42;15.90;99.90
38090;DHT22;23904;52.322;10.232;2023-08-06T01:42:08;15.90;99.90
38090;DHT22;23904;52.322;10.232;2023-08-06T01:44:33;15.90;99.90
38090;DHT22;23904;52.322;10.232;2023-08-06T01:46:59;15.90;99.90
38090;DHT22;23904;52.322;10.232;2023-08-06T01:49:24;15.90;99.90
38090;DHT22;23904;52.322;10.232;2023-08-06T01:51:50;15.90;99.90
38090;DHT22;23904;52.322;10.232;2023-08-06T01:54:16;15.90;99.90
38090;DHT22;23904;52.322;10.232;2023-08-06T01:56:41;15.90;99.90
38090;DHT22;23904;52.322;10.232;2023-08-06T01:59:07;15.80;99.90
38090;DHT22;23904;52.322;10.232;2023-08-06T02:01:32;15.80;99.90
38090;DHT22;23904;52.322;10.232;2023-08-06T02:03:58;15.70;99.90
38090;DHT22;23904;52.322;10.232;2023-08-06T02:06:23;15.70;99.90
38090;DHT22;23904;52.322;10.232;2023-08-06T02:08:49;15.70;99.90
38090;DHT22;23904;52.322;10.232;2023-08-06T02:11:15;15.70;99.90
38090;DHT22;23904;52.322;10.232;2023-08-06T02:13:40;15.70;99.90
38090;DHT22;23904;52.322;10.232;2023-08-06T02:16:09;15.70;99.90
38090;DHT22;23904;52.322;10.232;2023-08-06T02:18:36;15.70;99.90
38090;DHT22;23904;52.322;10.232;2023-08-06T02:21:01;15.70;99.90
38090;DHT22;23904;52.322;10.232;2023-08-06T02:23:27;15.70;99.90
38090;DHT22;23904;52.322;10.232;2023-08-06T02:26:00;15.70;99.90
38090;DHT22;23904;52.322;10.232;2023-08-06T02:28:27;15.70;99.90
38090;DHT22;23904;52.322;10.232;2023-08-06T02:30:53;15.70;99.90
38090;DHT22;23904;52.322;10.232;2023-08-06T02:33:19;15.70;99.90
38090;DHT22;23904;52.322;10.232;2023-08-06T02:35:44;15.70;99.90
38090;DHT22;23904;52.322;10.232;2023-08-06T02:38:10;15.70;99.90
38090;DHT22;23904;52.322;10.232;2023-08-06T02:40:36;15.70;99.90
38090;DHT22;23904;52.322;10.232;2023-08-06T02:43:01;15.70;99.90
38090;DHT22;23904;52.322;10.232;2023-08-06T02:45:29;15.70;99.90
38090;DHT22;23904;52.322;10.232;2023-08-06T02:47:54;15.70;99.90
38090;DHT22;23904;52.322;10.232;2023-08-06T02:50:20;15.70;99.90
38090;DHT22;23904;52.322;10.232;2023-08-06T02:52:45;15.60;99.90
38090;DHT22;23904;52.322;10.232;2023-08-06T02:55:11;15.60;99.90
38090;DHT22;23904;52.322;10.232;2023-08-06T02:57:36;15.60;99.90
38090;DHT22;23904;52.322;10.232;2023-08-06T03:00:02;15.60;99.90
38090;DHT22;23904;52.322;10.232;2023-08-06T03:02:28;15.60;99.90
38090;DHT22;23904;52.322;10.232;2023-08-06T03:04:53;15.60;99.90
38090;DHT22;23904;52.322;10.232;2023-08-06T03:07:19;15.60;99.90
38090;DHT22;23904;52.322;10.232;2023-08-06T03:09:45;15.60;99.90
38090;DHT22;23904;52.322;10.232;2023-08-06T03:12:10;15.50;99.90
38090;DHT22;23904;52.322;10.232;2023-08-06T03:14:36;15.50;99.90
38090;DHT22;23904;52.322;10.232;2023-08-06T03:17:01;15.50;99.90
38090;DHT22;23904;52.322;10.232;2023-08-06T03:19:27;15.40;99.90
38090;DHT22;23904;52.322;10.232;2023-08-06T03:21:53;15.40;99.90
38090;DHT22;23904;52.322;10.232;2023-08-06T03:24:18;15.40;99.90
38090;DHT22;23904;52.322;10.232;2023-08-06T03:26:44;15.50;99.90
38090;DHT22;23904;52.322;10.232;2023-08-06T03:29:09;15.50;99.90
38090;DHT22;23904;52.322;10.232;2023-08-06T03:31:35;15.50;99.90
38090;DHT22;23904;52.322;10.232;2023-08-06T03:34:00;15.50;99.90
38090;DHT22;23904;52.322;10.232;2023-08-06T03:36:26;15.60;99.90
38090;DHT22;23904;52.322;10.232;2023-08-06T03:38:52;15.60;99.90
38090;DHT22;23904;52.322;10.232;2023-08-06T03:41:17;15.60;99.90
38090;DHT22;23904;52.322;10.232;2023-08-06T03:43:43;15.70;99.90
38090;DHT22;23904;52.322;10.232;2023-08-06T03:46:08;15.60;99.90
38090;DHT22;23904;52.322;10.232;2023-08-06T03:48:34;15.60;99.90
38090;DHT22;23904;52.322;10.232;2023-08-06T03:50:59;15.60;99.90
38090;DHT22;23904;52.322;10.232;2023-08-06T03:53:27;15.60;99.90
38090;DHT22;23904;52.322;10.232;2023-08-06T03:55:52;15.60;99.90
38090;DHT22;23904;52.322;10.232;2023-08-06T03:58:18;15.60;99.90
38090;DHT22;23904;52.322;10.232;2023-08-06T04:00:44;15.60;99.90
38090;DHT22;23904;52.322;10.232;2023-08-06T04:03:09;15.60;99.90
38090;DHT22;23904;52.322;10.232;2023-08-06T04:05:35;15.60;99.90
38090;DHT22;23904;52.322;10.232;2023-08-06T04:08:00;15.60;99.90
38090;DHT22;23904;52.322;10.232;2023-08-06T04:10:26;15.60;99.90
38090;DHT22;23904;52.322;10.232;2023-08-06T04:12:52;15.50;99.90
38090;DHT22;23904;52.322;10.232;2023-08-06T04:15:17;15.60;99.90
38090;DHT22;23904;52.322;10.232;2023-08-06T04:17:43;15.60;99.90
38090;DHT22;23904;52.322;10.232;2023-08-06T04:20:09;15.60;99.90
38090;DHT22;23904;52.322;10.232;2023-08-06T04:22:34;15.60;99.90
38090;DHT22;23904;52.322;10.232;2023-08-06T04:25:00;15.60;99.90
38090;DHT22;23904;52.322;10.232;2023-08-06T04:27:26;15.70;99.90
38090;DHT22;23904;52.322;10.232;2023-08-06T04:29:51;15.70;99.90
38090;DHT22;23904;52.322;10.232;2023-08-06T04:32:17;15.70;99.90
38090;DHT22;23904;52.322;10.232;2023-08-06T04:34:44;15.70;99.90
38090;DHT22;23904;52.322;10.232;2023-08-06T04:37:10;15.70;99.90
38090;DHT22;23904;52.322;10.232;2023-08-06T04:39:35;15.70;99.90
38090;DHT22;23904;52.322;10.232;2023-08-06T04:42:01;15.70;99.90
38090;DHT22;23904;52.322;10.232;2023-08-06T04:44:27;15.70;99.90
38090;DHT22;23904;52.322;10.232;2023-08-06T04:46:52;15.70;99.90
38090;DHT22;23904;52.322;10.232;2023-08-06T04:49:22;15.70;99.90
38090;DHT22;23904;52.322;10.232;2023-08-06T04:51:48;15.80;99.90
38090;DHT22;23904;52.322;10.232;2023-08-06T04:54:14;15.80;99.90
38090;DHT22;23904;52.322;10.232;2023-08-06T04:56:40;15.80;99.90
38090;DHT22;23904;52.322;10.232;2023-08-06T04:59:05;15.80;99.90
38090;DHT22;23904;52.322;10.232;2023-08-06T05:01:34;15.70;99.90
38090;DHT22;23904;52.322;10.232;2023-08-06T05:03:59;15.70;99.90
38090;DHT22;23904;52.322;10.232;2023-08-06T05:06:25;15.80;99.90
38090;DHT22;23904;52.322;10.232;2023-08-06T05:08:51;15.80;99.90
38090;DHT22;23904;52.322;10.232;2023-08-06T05:11:16;15.80;99.90
38090;DHT22;23904;52.322;10.232;2023-08-06T05:13:42;15.80;99.90
38090;DHT22;23904;52.322;10.232;2023-08-06T05:16:07;15.80;99.90
38090;DHT22;23904;52.322;10.232;2023-08-06T05:18:33;15.90;99.90
38090;DHT22;23904;52.322;10.232;2023-08-06T05:20:59;15.90;99.90
38090;DHT22;23904;52.322;10.232;2023-08-06T05:23:25;15.90;99.90
38090;DHT22;23904;52.322;10.232;2023-08-06T05:25:51;16.00;99.90
38090;DHT22;23904;52.322;10.232;2023-08-06T05:28:16;16.00;99.90
38090;DHT22;23904;52.322;10.232;2023-08-06T05:30:42;16.00;99.90
38090;DHT22;23904;52.322;10.232;2023-08-06T05:33:07;16.10;99.90
38090;DHT22;23904;52.322;10.232;2023-08-06T05:35:33;16.10;99.90
38090;DHT22;23904;52.322;10.232;2023-08-06T05:37:59;16.20;99.90
38090;DHT22;23904;52.322;10.232;2023-08-06T05:40:25;16.20;99.90
38090;DHT22;23904;52.322;10.232;2023-08-06T05:42:53;16.20;99.90
38090;DHT22;23904;52.322;10.232;2023-08-06T05:45:19;16.20;99.90
38090;DHT22;23904;52.322;10.232;2023-08-06T05:47:44;16.20;99.90
38090;DHT22;23904;52.322;10.232;2023-08-06T05:50:10;16.20;99.90
38090;DHT22;23904;52.322;10.232;2023-08-06T05:52:35;16.20;99.90
38090;DHT22;23904;52.322;10.232;2023-08-06T05:55:01;16.20;99.90
38090;DHT22;23904;52.322;10.232;2023-08-06T05:57:27;16.30;99.90
38090;DHT22;23904;52.322;10.232;2023-08-06T05:59:52;16.30;99.90
38090;DHT22;23904;52.322;10.232;2023-08-06T06:02:18;16.30;99.90
38090;DHT22;23904;52.322;10.232;2023-08-06T06:04:44;16.30;99.90
38090;DHT22;23904;52.322;10.232;2023-08-06T06:07:09;16.40;99.90
38090;DHT22;23904;52.322;10.232;2023-08-06T06:09:35;16.40;99.90
38090;DHT22;23904;52.322;10.232;2023-08-06T06:12:01;16.40;99.90
38090;DHT22;23904;52.322;10.232;2023-08-06T06:14:26;16.40;99.90
38090;DHT22;23904;52.322;10.232;2023-08-06T06:16:52;16.40;99.90
38090;DHT22;23904;52.322;10.232;2023-08-06T06:19:18;16.40;99.90
38090;DHT22;23904;52.322;10.232;2023-08-06T06:21:44;16.40;99.90
38090;DHT22;23904;52.322;10.232;2023-08-06T06:24:09;16.50;99.90
38090;DHT22;23904;52.322;10.232;2023-08-06T06:26:35;16.50;99.90
38090;DHT22;23904;52.322;10.232;2023-08-06T06:29:00;16.50;99.90
38090;DHT22;23904;52.322;10.232;2023-08-06T06:31:26;16.60;99.90
38090;DHT22;23904;52.322;10.232;2023-08-06T06:33:52;16.60;99.90
38090;DHT22;23904;52.322;10.232;2023-08-06T06:36:19;16.60;99.90
38090;DHT22;23904;52.322;10.232;2023-08-06T06:38:45;16.60;99.90
38090;DHT22;23904;52.322;10.232;2023-08-06T06:41:11;16.60;99.90
38090;DHT22;23904;52.322;10.232;2023-08-06T06:43:37;16.70;99.90
38090;DHT22;23904;52.322;10.232;2023-08-06T06:46:05;16.70;99.90
38090;DHT22;23904;52.322;10.232;2023-08-06T06:48:32;16.70;99.90
38090;DHT22;23904;52.322;10.232;2023-08-06T06:50:59;16.60;99.90
38090;DHT22;23904;52.322;10.232;2023-08-06T06:53:24;16.70;99.90
38090;DHT22;23904;52.322;10.232;2023-08-06T06:56:03;16.70;99.90
38090;DHT22;23904;52.322;10.232;2023-08-06T06:58:30;16.80;99.90
38090;DHT22;23904;52.322;10.232;2023-08-06T07:00:57;16.80;99.90
38090;DHT22;23904;52.322;10.232;2023-08-06T07:03:23;16.80;99.90
38090;DHT22;23904;52.322;10.232;2023-08-06T07:05:49;16.80;99.90
38090;DHT22;23904;52.322;10.232;2023-08-06T07:08:15;16.80;99.90
38090;DHT22;23904;52.322;10.232;2023-08-06T07:10:41;16.90;99.90
38090;DHT22;23904;52.322;10.232;2023-08-06T07:13:08;17.00;99.90
38090;DHT22;23904;52.322;10.232;2023-08-06T07:15:34;17.10;99.90
38090;DHT22;23904;52.322;10.232;2023-08-06T07:17:59;17.30;99.90
38090;DHT22;23904;52.322;10.232;2023-08-06T07:20:25;17.30;99.90
38090;DHT22;23904;52.322;10.232;2023-08-06T07:22:51;17.40;99.90
38090;DHT22;23904;52.322;10.232;2023-08-06T07:25:17;17.40;99.90
38090;DHT22;23904;52.322;10.232;2023-08-06T07:27:42;17.50;99.90
38090;DHT22;23904;52.322;10.232;2023-08-06T07:30:08;17.40;99.90
38090;DHT22;23904;52.322;10.232;2023-08-06T07:32:34;17.60;99.90
38090;DHT22;23904;52.322;10.232;2023-08-06T07:35:00;17.70;99.90
38090;DHT22;23904;52.322;10.232;2023-08-06T07:37:28;17.60;99.90
38090;DHT22;23904;52.322;10.232;2023-08-06T07:39:57;17.60;99.90
38090;DHT22;23904;52.322;10.232;2023-08-06T07:42:25;17.50;99.90
38090;DHT22;23904;52.322;10.232;2023-08-06T07:44:55;17.50;99.90
38090;DHT22;23904;52.322;10.232;2023-08-06T07:47:23;17.70;99.90
38090;DHT22;23904;52.322;10.232;2023-08-06T07:49:49;17.80;99.90
38090;DHT22;23904;52.322;10.232;2023-08-06T07:52:15;17.90;99.90
38090;DHT22;23904;52.322;10.232;2023-08-06T07:54:41;18.10;99.90
38090;DHT22;23904;52.322;10.232;2023-08-06T07:57:07;18.20;99.90
38090;DHT22;23904;52.322;10.232;2023-08-06T07:59:32;18.30;99.90
38090;DHT22;23904;52.322;10.232;2023-08-06T08:01:58;18.30;99.90
38090;DHT22;23904;52.322;10.232;2023-08-06T08:04:25;18.40;99.90
38090;DHT22;23904;52.322;10.232;2023-08-06T08:06:50;18.50;99.90
38090;DHT22;23904;52.322;10.232;2023-08-06T08:09:16;18.60;99.90
38090;DHT22;23904;52.322;10.232;2023-08-06T08:11:42;18.80;99.90
38090;DHT22;23904;52.322;10.232;2023-08-06T08:14:07;19.00;99.90
38090;DHT22;23904;52.322;10.232;2023-08-06T08:16:33;19.20;99.90
38090;DHT22;23904;52.322;10.232;2023-08-06T08:18:59;19.50;99.90
38090;DHT22;23904;52.322;10.232;2023-08-06T08:21:25;19.60;99.90
38090;DHT22;23904;52.322;10.232;2023-08-06T08:23:51;19.70;99.90
38090;DHT22;23904;52.322;10.232;2023-08-06T08:26:18;19.70;99.90
38090;DHT22;23904;52.322;10.232;2023-08-06T08:28:44;19.80;99.90
38090;DHT22;23904;52.322;10.232;2023-08-06T08:31:11;19.90;99.90
38090;DHT22;23904;52.322;10.232;2023-08-06T08:33:37;19.70;99.90
38090;DHT22;23904;52.322;10.232;2023-08-06T08:36:03;19.80;99.90
38090;DHT22;23904;52.322;10.232;2023-08-06T08:38:29;19.90;99.90
38090;DHT22;23904;52.322;10.232;2023-08-06T08:40:55;19.90;99.90
38090;DHT22;23904;52.322;10.232;2023-08-06T08:43:22;20.00;99.90
38090;DHT22;23904;52.322;10.232;2023-08-06T08:45:52;20.10;99.90
38090;DHT22;23904;52.322;10.232;2023-08-06T08:48:21;20.20;99.90
38090;DHT22;23904;52.322;10.232;2023-08-06T08:50:49;20.20;99.90
38090;DHT22;23904;52.322;10.232;2023-08-06T08:53:16;20.20;99.90
38090;DHT22;23904;52.322;10.232;2023-08-06T08:55:47;20.20;99.90
38090;DHT22;23904;52.322;10.232;2023-08-06T08:58:14;20.20;99.90
38090;DHT22;23904;52.322;10.232;2023-08-06T09:00:45;20.10;99.90
38090;DHT22;23904;52.322;10.232;2023-08-06T09:03:12;20.10;99.90
38090;DHT22;23904;52.322;10.232;2023-08-06T09:05:41;20.10;99.90
38090;DHT22;23904;52.322;10.232;2023-08-06T09:08:11;20.10;99.90
38090;DHT22;23904;52.322;10.232;2023-08-06T09:10:39;20.10;99.90
38090;DHT22;23904;52.322;10.232;2023-08-06T09:13:06;20.10;99.90
38090;DHT22;23904;52.322;10.232;2023-08-06T09:15:32;19.80;99.90
38090;DHT22;23904;52.322;10.232;2023-08-06T09:17:58;19.80;99.90
38090;DHT22;23904;52.322;10.232;2023-08-06T09:20:24;19.80;99.90
38090;DHT22;23904;52.322;10.232;2023-08-06T09:22:52;19.90;99.90
38090;DHT22;23904;52.322;10.232;2023-08-06T09:25:25;19.90;99.90
38090;DHT22;23904;52.322;10.232;2023-08-06T09:27:52;20.70;99.90
38090;DHT22;23904;52.322;10.232;2023-08-06T09:30:31;21.30;99.90
38090;DHT22;23904;52.322;10.232;2023-08-06T09:32:58;21.50;99.90
38090;DHT22;23904;52.322;10.232;2023-08-06T09:35:24;21.70;99.90
38090;DHT22;23904;52.322;10.232;2023-08-06T09:37:49;21.80;99.90
38090;DHT22;23904;52.322;10.232;2023-08-06T09:40:34;21.90;99.90
38090;DHT22;23904;52.322;10.232;2023-08-06T09:43:00;22.10;99.90
38090;DHT22;23904;52.322;10.232;2023-08-06T09:45:30;22.70;99.90
38090;DHT22;23904;52.322;10.232;2023-08-06T09:47:59;23.70;99.90
38090;DHT22;23904;52.322;10.232;2023-08-06T09:50:30;24.60;99.90
38090;DHT22;23904;52.322;10.232;2023-08-06T09:52:58;25.50;99.90
38090;DHT22;23904;52.322;10.232;2023-08-06T09:55:24;26.10;99.70
38090;DHT22;23904;52.322;10.232;2023-08-06T09:57:52;27.00;99.90
38090;DHT22;23904;52.322;10.232;2023-08-06T10:00:18;27.50;98.30
38090;DHT22;23904;52.322;10.232;2023-08-06T10:02:45;28.60;98.30
38090;DHT22;23904;52.322;10.232;2023-08-06T10:05:11;28.90;94.00
38090;DHT22;23904;52.322;10.232;2023-08-06T10:07:37;29.60;94.60
38090;DHT22;23904;52.322;10.232;2023-08-06T10:10:05;29.60;92.10
38090;DHT22;23904;52.322;10.232;2023-08-06T10:12:41;30.20;91.10
38090;DHT22;23904;52.322;10.232;2023-08-06T10:15:14;30.60;91.30
38090;DHT22;23904;52.322;10.232;2023-08-06T10:17:45;31.20;89.60
38090;DHT22;23904;52.322;10.232;2023-08-06T10:20:11;30.70;83.10
38090;DHT22;23904;52.322;10.232;2023-08-06T10:22:43;30.70;88.60
38090;DHT22;23904;52.322;10.232;2023-08-06T10:25:16;30.40;88.50
38090;DHT22;23904;52.322;10.232;2023-08-06T10:32:55;30.30;88.30
38090;DHT22;23904;52.322;10.232;2023-08-06T10:35:48;30.00;85.30
38090;DHT22;23904;52.322;10.232;2023-08-06T10:38:22;30.90;80.90
38090;DHT22;23904;52.322;10.232;2023-08-06T10:43:31;32.40;79.00
38090;DHT22;23904;52.322;10.232;2023-08-06T10:45:59;32.50;81.50
38090;DHT22;23904;52.322;10.232;2023-08-06T10:51:14;28.40;87.70
38090;DHT22;23904;52.322;10.232;2023-08-06T10:53:48;26.70;90.80
38090;DHT22;23904;52.322;10.232;2023-08-06T10:56:16;26.80;93.10
38090;DHT22;23904;52.322;10.232;2023-08-06T10:58:43;27.70;90.90
38090;DHT22;23904;52.322;10.232;2023-08-06T11:01:10;28.40;87.70
38090;DHT22;23904;52.322;10.232;2023-08-06T11:03:37;29.80;87.20
38090;DHT22;23904;52.322;10.232;2023-08-06T11:06:03;30.50;78.10
38090;DHT22;23904;52.322;10.232;2023-08-06T11:08:34;30.90;79.80
38090;DHT22;23904;52.322;10.232;2023-08-06T11:11:12;29.30;83.30
38090;DHT22;23904;52.322;10.232;2023-08-06T11:13:43;28.70;80.70
38090;DHT22;23904;52.322;10.232;2023-08-06T11:16:15;28.50;87.00
38090;DHT22;23904;52.322;10.232;2023-08-06T11:18:42;28.00;89.70
38090;DHT22;23904;52.322;10.232;2023-08-06T11:21:08;27.10;89.50
38090;DHT22;23904;52.322;10.232;2023-08-06T11:23:35;26.40;92.00
38090;DHT22;23904;52.322;10.232;2023-08-06T11:26:01;26.60;93.10
38090;DHT22;23904;52.322;10.232;2023-08-06T11:28:27;28.50;90.90
38090;DHT22;23904;52.322;10.232;2023-08-06T11:30:53;29.40;83.70
38090;DHT22;23904;52.322;10.232;2023-08-06T11:33:21;30.10;79.90
38090;DHT22;23904;52.322;10.232;2023-08-06T11:35:55;30.50;80.10
38090;DHT22;23904;52.322;10.232;2023-08-06T11:38:29;30.70;78.60
38090;DHT22;23904;52.322;10.232;2023-08-06T11:40:55;31.00;77.30
38090;DHT22;23904;52.322;10.232;2023-08-06T11:43:21;30.70;78.70
38090;DHT22;23904;52.322;10.232;2023-08-06T11:45:48;30.60;81.50
38090;DHT22;23904;52.322;10.232;2023-08-06T11:48:14;30.00;83.90
38090;DHT22;23904;52.322;10.232;2023-08-06T11:50:40;28.70;82.10
38090;DHT22;23904;52.322;10.232;2023-08-06T11:53:06;28.30;86.60
38090;DHT22;23904;52.322;10.232;2023-08-06T11:55:32;27.60;86.40
38090;DHT22;23904;52.322;10.232;2023-08-06T11:57:58;26.90;86.40
38090;DHT22;23904;52.322;10.232;2023-08-06T12:00:25;27.40;88.20
38090;DHT22;23904;52.322;10.232;2023-08-06T12:02:51;27.80;87.70
38090;DHT22;23904;52.322;10.232;2023-08-06T12:05:29;27.80;87.80
38090;DHT22;23904;52.322;10.232;2023-08-06T12:07:57;27.70;85.10
38090;DHT22;23904;52.322;10.232;2023-08-06T12:10:28;27.80;85.00
38090;DHT22;23904;52.322;10.232;2023-08-06T12:12:55;27.40;86.20
38090;DHT22;23904;52.322;10.232;2023-08-06T12:15:21;26.90;88.40
38090;DHT22;23904;52.322;10.232;2023-08-06T12:17:47;26.50;88.30
38090;DHT22;23904;52.322;10.232;2023-08-06T12:20:13;26.70;90.10
38090;DHT22;23904;52.322;10.232;2023-08-06T12:22:39;26.70;89.80
38090;DHT22;23904;52.322;10.232;2023-08-06T12:25:07;26.20;87.30
38090;DHT22;23904;52.322;10.232;2023-08-06T12:27:37;25.90;87.20
38090;DHT22;23904;52.322;10.232;2023-08-06T12:30:04;25.80;88.60
38090;DHT22;23904;52.322;10.232;2023-08-06T12:32:30;25.90;88.20
38090;DHT22;23904;52.322;10.232;2023-08-06T12:34:56;26.20;89.60
38090;DHT22;23904;52.322;10.232;2023-08-06T12:37:22;26.50;88.40
38090;DHT22;23904;52.322;10.232;2023-08-06T12:39:49;26.00;90.00
38090;DHT22;23904;52.322;10.232;2023-08-06T12:42:15;25.80;91.30
38090;DHT22;23904;52.322;10.232;2023-08-06T12:44:40;26.20;90.60
38090;DHT22;23904;52.322;10.232;2023-08-06T12:47:07;27.30;89.40
38090;DHT22;23904;52.322;10.232;2023-08-06T12:49:33;28.00;84.30
38090;DHT22;23904;52.322;10.232;2023-08-06T12:51:59;28.00;84.20
38090;DHT22;23904;52.322;10.232;2023-08-06T12:54:25;27.10;85.50
38090;DHT22;23904;52.322;10.232;2023-08-06T12:56:52;27.00;83.50
38090;DHT22;23904;52.322;10.232;2023-08-06T12:59:18;27.10;84.30
38090;DHT22;23904;52.322;10.232;2023-08-06T13:01:44;27.70;83.20
38090;DHT22;23904;52.322;10.232;2023-08-06T13:04:10;28.00;83.40
38090;DHT22;23904;52.322;10.232;2023-08-06T13:06:37;27.60;80.50
38090;DHT22;23904;52.322;10.232;2023-08-06T13:09:04;27.90;81.00
38090;DHT22;23904;52.322;10.232;2023-08-06T13:11:31;27.60;84.10
38090;DHT22;23904;52.322;10.232;2023-08-06T13:14:09;27.40;84.30
38090;DHT22;23904;52.322;10.232;2023-08-06T13:16:37;27.00;83.90
38090;DHT22;23904;52.322;10.232;2023-08-06T13:19:04;26.60;84.30
38090;DHT22;23904;52.322;10.232;2023-08-06T13:21:34;26.20;86.40
38090;DHT22;23904;52.322;10.232;2023-08-06T13:24:03;25.80;88.90
38090;DHT22;23904;52.322;10.232;2023-08-06T13:26:30;25.80;90.50
38090;DHT22;23904;52.322;10.232;2023-08-06T13:28:57;25.60;90.80
38090;DHT22;23904;52.322;10.232;2023-08-06T13:31:23;25.60;88.50
38090;DHT22;23904;52.322;10.232;2023-08-06T13:33:49;25.50;90.00
38090;DHT22;23904;52.322;10.232;2023-08-06T13:36:16;25.60;88.00
38090;DHT22;23904;52.322;10.232;2023-08-06T13:38:42;25.70;88.70
38090;DHT22;23904;52.322;10.232;2023-08-06T13:41:08;25.70;88.20
38090;DHT22;23904;52.322;10.232;2023-08-06T13:43:34;25.90;90.70
38090;DHT22;23904;52.322;10.232;2023-08-06T13:45:59;26.10;90.60
38090;DHT22;23904;52.322;10.232;2023-08-06T13:48:25;26.10;89.50
38090;DHT22;23904;52.322;10.232;2023-08-06T13:50:51;26.10;90.60
38090;DHT22;23904;52.322;10.232;2023-08-06T13:53:16;25.80;90.50
38090;DHT22;23904;52.322;10.232;2023-08-06T13:55:42;25.50;90.80
38090;DHT22;23904;52.322;10.232;2023-08-06T13:58:08;25.10;90.10
38090;DHT22;23904;52.322;10.232;2023-08-06T14:00:35;24.90;90.40
38090;DHT22;23904;52.322;10.232;2023-08-06T14:03:01;24.80;91.70
38090;DHT22;23904;52.322;10.232;2023-08-06T14:05:27;24.50;92.00
38090;DHT22;23904;52.322;10.232;2023-08-06T14:07:52;24.20;93.00
38090;DHT22;23904;52.322;10.232;2023-08-06T14:10:18;24.10;92.40
38090;DHT22;23904;52.322;10.232;2023-08-06T14:12:43;24.20;92.80
38090;DHT22;23904;52.322;10.232;2023-08-06T14:15:10;24.60;92.20
38090;DHT22;23904;52.322;10.232;2023-08-06T14:17:36;24.40;91.60
38090;DHT22;23904;52.322;10.232;2023-08-06T14:20:02;24.30;93.30
38090;DHT22;23904;52.322;10.232;2023-08-06T14:22:30;24.40;93.20
38090;DHT22;23904;52.322;10.232;2023-08-06T14:24:57;24.40;93.00
38090;DHT22;23904;52.322;10.232;2023-08-06T14:27:24;24.10;93.60
38090;DHT22;23904;52.322;10.232;2023-08-06T14:29:49;23.80;93.40
38090;DHT22;23904;52.322;10.232;2023-08-06T14:32:15;23.90;93.90
38090;DHT22;23904;52.322;10.232;2023-08-06T14:34:44;23.90;93.80
38090;DHT22;23904;52.322;10.232;2023-08-06T14:37:10;23.80;93.30
38090;DHT22;23904;52.322;10.232;2023-08-06T14:39:36;23.80;94.00
38090;DHT22;23904;52.322;10.232;2023-08-06T14:42:02;23.70;93.90
38090;DHT22;23904;52.322;10.232;2023-08-06T14:44:29;23.60;94.70
38090;DHT22;23904;52.322;10.232;2023-08-06T14:46:54;23.40;95.60
38090;DHT22;23904;52.322;10.232;2023-08-06T14:49:20;23.30;95.90
38090;DHT22;23904;52.322;10.232;2023-08-06T14:51:45;23.30;95.90
38090;DHT22;23904;52.322;10.232;2023-08-06T14:54:11;23.30;96.10
38090;DHT22;23904;52.322;10.232;2023-08-06T14:56:37;23.30;96.20
38090;DHT22;23904;52.322;10.232;2023-08-06T14:59:02;23.30;96.40
38090;DHT22;23904;52.322;10.232;2023-08-06T15:01:28;23.30;96.00
38090;DHT22;23904;52.322;10.232;2023-08-06T15:03:54;23.60;95.40
38090;DHT22;23904;52.322;10.232;2023-08-06T15:06:19;23.80;95.20
38090;DHT22;23904;52.322;10.232;2023-08-06T15:08:45;23.90;94.50
38090;DHT22;23904;52.322;10.232;2023-08-06T15:11:13;24.00;94.70
38090;DHT22;23904;52.322;10.232;2023-08-06T15:13:39;23.90;94.60
38090;DHT22;23904;52.322;10.232;2023-08-06T15:16:04;23.70;95.20
38090;DHT22;23904;52.322;10.232;2023-08-06T15:18:30;23.50;95.70
38090;DHT22;23904;52.322;10.232;2023-08-06T15:20:55;23.20;96.50
38090;DHT22;23904;52.322;10.232;2023-08-06T15:23:22;23.10;96.50
38090;DHT22;23904;52.322;10.232;2023-08-06T15:25:48;23.00;96.80